KELY

Ely Arpt / Yelland Field / Airport

Ely, Nevada, USA
METAR KELY 191053Z AUTO 17008KT 10SM CLR M04/M07 A3032 RMK AO2 SLP261 T10441067 TSNO
Observed Flight Rules
Dec-19 @ 10:53 UTC (an hour ago) Visual Flight Rules
Wind Visibility Clouds
170° at 8 knots 10 miles
  • Clear skies
Temperatures Readings
Current -4°C / 25°F
Dewpoint -7°C / 19°F
Humidity 80%
Altimeter 30.32" Hg
Pressure 1026.1 hPa
Elevation 1906
METAR KELY 191053Z AUTO 17008KT 10SM CLR M04/M07 A3032 RMK AO2 SLP261 T10441067 TSNO
Observed Flight Rules
Dec-19 @ 10:53 UTC
(an hour ago)
VFR
Wind Visibility
170° at 8 knots 10 miles
Clouds
  • Clear skies
Temperature Dewpoint
-4°C / 25°F -7°C / 19°F
Humidity Altimeter Pressure
80% 30.32" Hg 1026.1 hPa